LY89 weather

Bor Airport
Bor, Bor, Serbia

Public forecast

Using degrees Celsius for public forecast. Weather courtesy of forecast.io.

Closest aviation weather report (METAR) to Bor Airport

Closest report is Nis Airport, 42.7 nm (79.1 km) SSW. Retrieved 2020/08/03 20:30 UTC (26 minutes ago):

LYNI 032030Z 12005KT CAVOK 24/15 Q1008 NOSIG

Closest aviation forecast (TAF) to Bor Airport

Closest forecast is Nis Airport, 42.7 nm (79.1 km) SSW. Retrieved 2020/08/03 18:21 UTC (3 hours ago):

TAF LYNI 031700Z 0318/0418 09008KT CAVOK TX34/0414Z TN21/0403Z PROB30 TEMPO 0416/0418 22015G25KT 5000 TSRA SCT043CB